Список аэропортов
Фактическая погода:

15 августа, 16:00
Температура: +15°C (+14.5*)
Ветер: восточный 3 м/с
Давление: *758 мм
разорв. обл.
кучево-дождевые 180 м
облачно
слаб. ливневый дождь
Время (МСК)Темп. СВетерВлажностьДавлениеОблачностьОсадки
21:00+14С, 4 м/с92%1009 гПаоблачносл. дождь
22:00+14С, 4 м/с92%1009 гПаоблачносл. дождь
23:00+14С, 3 м/с92%1009 гПаоблачно
16 августа
00:00+14С, 3 м/с92%1009 гПаоблачно
01:00+14С, 3 м/с93%1009 гПаоблачно
02:00+14С, 3 м/с93%1010 гПаоблачносл. дождь
03:00+14С, 3 м/с93%1010 гПаоблачносл. дождь
04:00+14С, 3 м/с93%1011 гПаоблачносл. дождь
05:00+14СЗ, 3 м/с93%1011 гПаоблачно
06:00+14СЗ, 2 м/с93%1012 гПаоблачно
07:00+14СЗ, 2 м/с93%1013 гПаоблачно
08:00+15СЗ, 2 м/с92%1013 гПас прояснениями
09:00+17СЗ, 2 м/с84%1014 гПаясно
10:00+18СЗ, 3 м/с70%1015 гПаясно
11:00+20СЗ, 4 м/с60%1015 гПаясно
12:00+20СЗ, 4 м/с57%1015 гПамалооблачно
13:00+21СЗ, 4 м/с53%1016 гПас прояснениями
14:00+21СЗ, 4 м/с49%1016 гПамалооблачно
15:00+21СЗ, 4 м/с47%1017 гПамалооблачно
16:00+20СЗ, 4 м/с45%1017 гПамалооблачно
17:00+20СЗ, 4 м/с46%1018 гПамалооблачно
18:00+19СЗ, 4 м/с46%1018 гПамалооблачно
19:00+18СЗ, 3 м/с51%1019 гПаясно
20:00+16СЗ, 2 м/с60%1020 гПаясно
21:00+14СЗ, 2 м/с72%1021 гПас прояснениями
22:00+12СЗ, 1 м/с83%1021 гПаоблачно
23:00+11З, 1 м/с90%1022 гПаоблачно
17 августа
00:00+10З, 1 м/с95%1022 гПаоблачно
01:00+9З, 1 м/с98%1023 гПамалооблачно
02:00+9З, 1 м/с98%1023 гПамалооблачно
03:00+8ЮЗ, 1 м/с100%1024 гПас прояснениями
04:00+7ЮЗ, 1 м/с100%1024 гПаоблачно
05:00+7ЮЗ, 1 м/с99%1025 гПас прояснениями
06:00+8Ю, 1 м/с98%1025 гПас прояснениями
07:00+10Штиль 92%1025 гПамалооблачно
08:00+13ЮВ, 1 м/с81%1025 гПамалооблачно
09:00+17ЮВ, 1 м/с63%1025 гПас прояснениями
10:00+18Ю, 1 м/с50%1026 гПаоблачно
11:00+20Ю, 1 м/с46%1025 гПаоблачно
12:00+21ЮЗ, 1 м/с44%1025 гПаоблачно
13:00+21З, 2 м/с45%1025 гПаоблачно
14:00+22З, 2 м/с44%1025 гПаоблачно
15:00+22З, 1 м/с44%1025 гПаоблачно
16:00+22З, 1 м/с44%1024 гПаоблачно
17:00+22З, 2 м/с45%1024 гПаоблачно
18:00+21З, 1 м/с49%1025 гПаоблачно
19:00+20Штиль 60%1024 гПас прояснениями
20:00+17Штиль 69%1024 гПамалооблачно
21:00+16ЮВ, 1 м/с70%1025 гПамалооблачно